Zhe Pu Tuo 2012 — BKRA5 — position and weather

sailwx.info

Track history (hours):
 
Tides and Currents Weather Stations Pressure Air Temp Water Temp Dewpoint Dewpoint Depression Visibility Wind Speed Wind Dir Waves Ship Positions

Zhe Pu Tuo 2012

Last reported at 2016-Dec-26 04:16 UTC. Time now 2017-Feb-25 18:56 UTC.
Position N 38°19' E 118°08'.
Warning: this ship's position is months out of date.

; draft 3.8 m.

Type: Tug. MMSI: 412763040.

Date/timePositionNaut miles runAvg speedWind from/ knotsBaromVisibWave heightAir tempDewpointWater temp
2016-Dec-26 04:16N 38°19' E 118°08'0 0.1
2016-Dec-26 03:27N 38°19' E 118°08'6 5.3
2016-Dec-26 02:23N 38°24' E 118°11'11 0.7
2016-Dec-25 10:16N 38°27' E 118°25'1 0.1
2016-Dec-25 01:19N 38°27' E 118°26'0 0.0
2016-Dec-25 00:33N 38°27' E 118°26'2 0.3
2016-Dec-24 19:32N 38°27' E 118°24'0 0.0
2016-Dec-24 18:27N 38°27' E 118°24'10 3.1
2016-Dec-24 15:13N 38°31' E 118°12'6 8.4
2016-Dec-24 14:31N 38°33' E 118°05'8 8.0
2016-Dec-24 13:33N 38°36' E 117°56'7 7.4
2016-Dec-24 12:33N 38°38' E 117°47'8 7.5
2016-Dec-24 11:30N 38°46' E 117°51'13 6.4
2016-Dec-24 09:33N 38°58' E 117°48'3 3.4
2016-Dec-24 08:33N 38°59' E 117°44'0 0.0
2016-Dec-24 07:33N 38°59' E 117°44'0 0.0
2016-Dec-24 06:33N 38°59' E 117°44'0 0.3
2016-Dec-24 05:33N 38°59' E 117°43'0 0.0
2016-Dec-24 04:33N 38°59' E 117°43'0 0.0
2016-Dec-24 03:33N 38°59' E 117°43'0 0.0
2016-Dec-24 02:33N 38°59' E 117°43'0 0.0
2016-Dec-24 01:33N 38°59' E 117°43'0 0.0
2016-Dec-24 00:33N 38°59' E 117°43'0 0.0
2016-Dec-23 23:33N 38°59' E 117°43'0 0.0
2016-Dec-23 22:33N 38°59' E 117°43'0 0.0
2016-Dec-23 21:33N 38°59' E 117°43'0 0.0
2016-Dec-23 20:33N 38°59' E 117°43'0 0.0
2016-Dec-23 19:33N 38°59' E 117°43'0 0.0
2016-Dec-23 18:33N 38°59' E 117°43'0 0.0
2016-Dec-23 17:33N 38°59' E 117°43'0 0.0
2016-Dec-23 15:03N 38°59' E 117°43'0 0.0
2016-Dec-23 14:33N 38°59' E 117°43'0 0.0
2016-Dec-23 13:33N 38°59' E 117°43'0 0.0
2016-Dec-23 12:33N 38°59' E 117°43'0 0.0
2016-Dec-23 11:33N 38°59' E 117°43'4 4.2
2016-Dec-23 10:33N 38°58' E 117°49'6 5.6
2016-Dec-23 09:33N 38°56' E 117°55'9 9.2
2016-Dec-23 08:33N 38°47' E 117°56'9 4.1
2016-Dec-23 06:26N 38°39' E 117°51'4 3.9
2016-Dec-23 05:30N 38°38' E 117°47'0 0.0
2016-Dec-23 03:30N 38°38' E 117°47'0 0.0
2016-Dec-23 02:30N 38°38' E 117°47'0 0.0
2016-Dec-23 01:24N 38°38' E 117°47'0 0.0
2016-Dec-22 22:24N 38°38' E 117°47'0 0.0
2016-Dec-22 20:24N 38°38' E 117°47'0 0.0
2016-Dec-22 19:24N 38°38' E 117°47'0 0.0
2016-Dec-22 18:24N 38°38' E 117°47'0 0.1
2016-Dec-22 17:30N 38°38' E 117°47'0 0.0
2016-Dec-22 16:30N 38°38' E 117°47'0 0.0
2016-Dec-22 15:18N 38°38' E 117°47'0 0.0
2016-Dec-22 08:33N 38°38' E 117°47'4 3.9
2016-Dec-22 07:31N 38°34' E 117°49'  
2016-Dec-18 05:09N 38°37' E 117°54'5 8.3
2016-Dec-18 04:33N 38°34' E 117°50'0 0.0
2016-Dec-17 07:20N 38°33' E 117°50'4 4.8
2016-Dec-17 06:25N 38°38' E 117°47'1 1.7
2016-Dec-17 05:33N 38°39' E 117°47'0 0.0
2016-Dec-17 04:33N 38°39' E 117°47'0 0.0
2016-Dec-17 03:25N 38°39' E 117°47'0 0.0
2016-Dec-17 01:31N 38°39' E 117°47'0 0.0
2016-Dec-16 18:30N 38°39' E 117°47'0 0.0
2016-Dec-16 17:29N 38°39' E 117°47'0 0.1
2016-Dec-16 16:29N 38°39' E 117°47'0 0.0
2016-Dec-16 15:31N 38°39' E 117°47'0 0.0
2016-Dec-16 14:33N 38°39' E 117°47'0 0.0
2016-Dec-16 13:33N 38°39' E 117°47'0 0.0
2016-Dec-16 12:33N 38°39' E 117°47'0 0.0
2016-Dec-16 11:22N 38°39' E 117°47'0 0.0
2016-Dec-16 10:29N 38°39' E 117°47'  
Track history (hours):
 
Tides and Currents Weather Stations Pressure Air Temp Water Temp Dewpoint Dewpoint Depression Visibility Wind Speed Wind Dir Waves Ship Positions

Zhe Pu Tuo 2012

Last reported at 2016-Dec-26 04:16 UTC. Time now 2017-Feb-25 18:56 UTC.
Position N 38°19' E 118°08'.
Warning: this ship's position is months out of date.

; draft 3.8 m.

Type: Tug. MMSI: 412763040.

Date/timePositionNaut miles runAvg speedWind from/ knotsBaromVisibWave heightAir tempDewpointWater temp
2016-Dec-26 04:16N 38°19' E 118°08'0 0.1
2016-Dec-26 03:27N 38°19' E 118°08'6 5.3
2016-Dec-26 02:23N 38°24' E 118°11'11 0.7
2016-Dec-25 10:16N 38°27' E 118°25'1 0.1
2016-Dec-25 01:19N 38°27' E 118°26'0 0.0
2016-Dec-25 00:33N 38°27' E 118°26'2 0.3
2016-Dec-24 19:32N 38°27' E 118°24'0 0.0
2016-Dec-24 18:27N 38°27' E 118°24'10 3.1
2016-Dec-24 15:13N 38°31' E 118°12'6 8.4
2016-Dec-24 14:31N 38°33' E 118°05'8 8.0
2016-Dec-24 13:33N 38°36' E 117°56'7 7.4
2016-Dec-24 12:33N 38°38' E 117°47'8 7.5
2016-Dec-24 11:30N 38°46' E 117°51'13 6.4
2016-Dec-24 09:33N 38°58' E 117°48'3 3.4
2016-Dec-24 08:33N 38°59' E 117°44'0 0.0
2016-Dec-24 07:33N 38°59' E 117°44'0 0.0
2016-Dec-24 06:33N 38°59' E 117°44'0 0.3
2016-Dec-24 05:33N 38°59' E 117°43'0 0.0
2016-Dec-24 04:33N 38°59' E 117°43'0 0.0
2016-Dec-24 03:33N 38°59' E 117°43'0 0.0
2016-Dec-24 02:33N 38°59' E 117°43'0 0.0
2016-Dec-24 01:33N 38°59' E 117°43'0 0.0
2016-Dec-24 00:33N 38°59' E 117°43'0 0.0
2016-Dec-23 23:33N 38°59' E 117°43'0 0.0
2016-Dec-23 22:33N 38°59' E 117°43'0 0.0
2016-Dec-23 21:33N 38°59' E 117°43'0 0.0
2016-Dec-23 20:33N 38°59' E 117°43'0 0.0
2016-Dec-23 19:33N 38°59' E 117°43'0 0.0
2016-Dec-23 18:33N 38°59' E 117°43'0 0.0
2016-Dec-23 17:33N 38°59' E 117°43'0 0.0
2016-Dec-23 15:03N 38°59' E 117°43'0 0.0
2016-Dec-23 14:33N 38°59' E 117°43'0 0.0
2016-Dec-23 13:33N 38°59' E 117°43'0 0.0
2016-Dec-23 12:33N 38°59' E 117°43'0 0.0
2016-Dec-23 11:33N 38°59' E 117°43'4 4.2
2016-Dec-23 10:33N 38°58' E 117°49'6 5.6
2016-Dec-23 09:33N 38°56' E 117°55'9 9.2
2016-Dec-23 08:33N 38°47' E 117°56'9 4.1
2016-Dec-23 06:26N 38°39' E 117°51'4 3.9
2016-Dec-23 05:30N 38°38' E 117°47'0 0.0
2016-Dec-23 03:30N 38°38' E 117°47'0 0.0
2016-Dec-23 02:30N 38°38' E 117°47'0 0.0
2016-Dec-23 01:24N 38°38' E 117°47'0 0.0
2016-Dec-22 22:24N 38°38' E 117°47'0 0.0
2016-Dec-22 20:24N 38°38' E 117°47'0 0.0
2016-Dec-22 19:24N 38°38' E 117°47'0 0.0
2016-Dec-22 18:24N 38°38' E 117°47'0 0.1
2016-Dec-22 17:30N 38°38' E 117°47'0 0.0
2016-Dec-22 16:30N 38°38' E 117°47'0 0.0
2016-Dec-22 15:18N 38°38' E 117°47'0 0.0
2016-Dec-22 08:33N 38°38' E 117°47'4 3.9
2016-Dec-22 07:31N 38°34' E 117°49'  
2016-Dec-18 05:09N 38°37' E 117°54'5 8.3
2016-Dec-18 04:33N 38°34' E 117°50'0 0.0
2016-Dec-17 07:20N 38°33' E 117°50'4 4.8
2016-Dec-17 06:25N 38°38' E 117°47'1 1.7
2016-Dec-17 05:33N 38°39' E 117°47'0 0.0
2016-Dec-17 04:33N 38°39' E 117°47'0 0.0
2016-Dec-17 03:25N 38°39' E 117°47'0 0.0
2016-Dec-17 01:31N 38°39' E 117°47'0 0.0
2016-Dec-16 18:30N 38°39' E 117°47'0 0.0
2016-Dec-16 17:29N 38°39' E 117°47'0 0.1
2016-Dec-16 16:29N 38°39' E 117°47'0 0.0
2016-Dec-16 15:31N 38°39' E 117°47'0 0.0
2016-Dec-16 14:33N 38°39' E 117°47'0 0.0
2016-Dec-16 13:33N 38°39' E 117°47'0 0.0
2016-Dec-16 12:33N 38°39' E 117°47'0 0.0
2016-Dec-16 11:22N 38°39' E 117°47'0 0.0
2016-Dec-16 10:29N 38°39' E 117°47'  

Dump ship's entire track history